General Madariaga, Argentina
Current Conditions -  °F | °C
As of 7:00 PM on Saturday 25 Oct 2014 (Local Time) from SAZM Reporting Station
Scattered Clouds Scattered Clouds  
Wind Chill: 19°   Ceiling: Unl
Heat Index: 19°   Visibility: 6mi
Dew Point: 16°   Wind: 10mph
Humidity: 83%   Direction: 70°ENE
Pressure: 29.85"   Gusts: NA
Location:  37°S, 57.15°W
Report Text: SAZM 252200Z 07009KT 9999 FEW030 SCT10019/16 Q1011
Loading
Personal Weather Stations






























Interactive Weather Map
Tropical Storm Tracking
New forecast layout! Learn more

10-Day Weather Forecast

Advertisements
Track Severe Weather on mobile